sensor_id;sensor_type;location;lat;lon;timestamp;P1;durP1;ratioP1;P2;durP2;ratioP2
13720;SDS011;6932;51.438;5.470;2022-07-17T00:01:53;2.50;;;1.37;;
13720;SDS011;6932;51.438;5.470;2022-07-17T00:04:18;4.50;;;1.60;;
13720;SDS011;6932;51.438;5.470;2022-07-17T00:06:44;2.50;;;1.60;;
13720;SDS011;6932;51.438;5.470;2022-07-17T00:09:10;4.63;;;1.60;;
13720;SDS011;6932;51.438;5.470;2022-07-17T00:11:36;3.47;;;1.57;;
13720;SDS011;6932;51.438;5.470;2022-07-17T00:14:01;4.07;;;1.50;;
13720;SDS011;6932;51.438;5.470;2022-07-17T00:16:27;2.60;;;1.40;;
13720;SDS011;6932;51.438;5.470;2022-07-17T00:18:53;4.93;;;1.60;;
13720;SDS011;6932;51.438;5.470;2022-07-17T00:21:19;2.53;;;1.40;;
13720;SDS011;6932;51.438;5.470;2022-07-17T00:23:44;3.57;;;1.70;;
13720;SDS011;6932;51.438;5.470;2022-07-17T00:26:10;4.20;;;1.80;;
13720;SDS011;6932;51.438;5.470;2022-07-17T00:28:36;4.90;;;1.57;;
13720;SDS011;6932;51.438;5.470;2022-07-17T00:31:02;2.97;;;1.70;;
13720;SDS011;6932;51.438;5.470;2022-07-17T00:33:28;2.50;;;1.33;;
13720;SDS011;6932;51.438;5.470;2022-07-17T00:35:53;2.73;;;1.47;;
13720;SDS011;6932;51.438;5.470;2022-07-17T00:38:19;3.57;;;1.60;;
13720;SDS011;6932;51.438;5.470;2022-07-17T00:40:45;4.03;;;1.60;;
13720;SDS011;6932;51.438;5.470;2022-07-17T00:43:10;3.87;;;1.80;;
13720;SDS011;6932;51.438;5.470;2022-07-17T00:45:36;2.37;;;1.40;;
13720;SDS011;6932;51.438;5.470;2022-07-17T00:48:03;3.40;;;1.70;;
13720;SDS011;6932;51.438;5.470;2022-07-17T00:50:37;5.23;;;2.00;;
13720;SDS011;6932;51.438;5.470;2022-07-17T00:53:06;2.60;;;1.60;;
13720;SDS011;6932;51.438;5.470;2022-07-17T00:55:33;4.97;;;1.90;;
13720;SDS011;6932;51.438;5.470;2022-07-17T00:58:00;3.80;;;1.83;;
13720;SDS011;6932;51.438;5.470;2022-07-17T01:00:29;2.57;;;1.80;;
13720;SDS011;6932;51.438;5.470;2022-07-17T01:02:55;3.00;;;1.70;;
13720;SDS011;6932;51.438;5.470;2022-07-17T01:05:22;3.63;;;1.70;;
13720;SDS011;6932;51.438;5.470;2022-07-17T01:07:49;2.80;;;1.50;;
13720;SDS011;6932;51.438;5.470;2022-07-17T01:10:17;3.27;;;1.80;;
13720;SDS011;6932;51.438;5.470;2022-07-17T01:12:46;4.73;;;1.60;;
13720;SDS011;6932;51.438;5.470;2022-07-17T01:15:13;2.90;;;1.60;;
13720;SDS011;6932;51.438;5.470;2022-07-17T01:17:40;3.97;;;1.80;;
13720;SDS011;6932;51.438;5.470;2022-07-17T01:20:07;4.30;;;1.93;;
13720;SDS011;6932;51.438;5.470;2022-07-17T01:22:42;2.30;;;1.80;;
13720;SDS011;6932;51.438;5.470;2022-07-17T01:25:14;3.27;;;2.00;;
13720;SDS011;6932;51.438;5.470;2022-07-17T01:27:45;4.00;;;1.90;;
13720;SDS011;6932;51.438;5.470;2022-07-17T01:30:11;2.63;;;1.60;;
13720;SDS011;6932;51.438;5.470;2022-07-17T01:32:37;5.73;;;2.07;;
13720;SDS011;6932;51.438;5.470;2022-07-17T01:35:06;4.77;;;1.97;;
13720;SDS011;6932;51.438;5.470;2022-07-17T01:37:34;3.93;;;1.60;;
13720;SDS011;6932;51.438;5.470;2022-07-17T01:40:00;3.60;;;1.60;;
13720;SDS011;6932;51.438;5.470;2022-07-17T01:42:27;4.83;;;1.90;;
13720;SDS011;6932;51.438;5.470;2022-07-17T01:44:54;4.80;;;1.70;;
13720;SDS011;6932;51.438;5.470;2022-07-17T01:47:21;4.20;;;1.80;;
13720;SDS011;6932;51.438;5.470;2022-07-17T01:49:48;4.53;;;1.90;;
13720;SDS011;6932;51.438;5.470;2022-07-17T01:52:17;3.80;;;2.00;;
13720;SDS011;6932;51.438;5.470;2022-07-17T01:54:44;4.53;;;2.00;;
13720;SDS011;6932;51.438;5.470;2022-07-17T01:57:10;6.07;;;1.80;;
13720;SDS011;6932;51.438;5.470;2022-07-17T01:59:36;3.33;;;1.83;;
13720;SDS011;6932;51.438;5.470;2022-07-17T02:02:04;5.30;;;2.03;;
13720;SDS011;6932;51.438;5.470;2022-07-17T02:04:31;4.87;;;1.80;;
13720;SDS011;6932;51.438;5.470;2022-07-17T02:07:00;3.07;;;1.70;;
13720;SDS011;6932;51.438;5.470;2022-07-17T02:09:26;3.57;;;1.80;;
13720;SDS011;6932;51.438;5.470;2022-07-17T02:11:52;4.20;;;1.90;;
13720;SDS011;6932;51.438;5.470;2022-07-17T02:14:18;4.53;;;1.83;;
13720;SDS011;6932;51.438;5.470;2022-07-17T02:16:44;3.17;;;1.90;;
13720;SDS011;6932;51.438;5.470;2022-07-17T02:19:10;8.00;;;1.90;;
13720;SDS011;6932;51.438;5.470;2022-07-17T02:21:36;3.53;;;1.67;;
13720;SDS011;6932;51.438;5.470;2022-07-17T02:24:02;4.20;;;1.90;;
13720;SDS011;6932;51.438;5.470;2022-07-17T02:26:28;3.70;;;1.80;;
13720;SDS011;6932;51.438;5.470;2022-07-17T02:28:54;5.10;;;2.00;;
13720;SDS011;6932;51.438;5.470;2022-07-17T02:31:20;4.70;;;1.90;;
13720;SDS011;6932;51.438;5.470;2022-07-17T02:33:46;4.57;;;1.87;;
13720;SDS011;6932;51.438;5.470;2022-07-17T02:36:12;6.60;;;1.83;;
13720;SDS011;6932;51.438;5.470;2022-07-17T02:38:38;4.40;;;1.83;;
13720;SDS011;6932;51.438;5.470;2022-07-17T02:41:04;3.83;;;1.90;;
13720;SDS011;6932;51.438;5.470;2022-07-17T02:43:30;3.73;;;1.97;;
13720;SDS011;6932;51.438;5.470;2022-07-17T02:45:56;2.30;;;1.73;;
13720;SDS011;6932;51.438;5.470;2022-07-17T02:48:21;6.23;;;1.90;;
13720;SDS011;6932;51.438;5.470;2022-07-17T02:50:47;6.13;;;2.33;;
13720;SDS011;6932;51.438;5.470;2022-07-17T02:53:13;3.00;;;1.83;;
13720;SDS011;6932;51.438;5.470;2022-07-17T02:55:38;6.73;;;2.27;;
13720;SDS011;6932;51.438;5.470;2022-07-17T02:58:04;5.10;;;1.87;;
13720;SDS011;6932;51.438;5.470;2022-07-17T03:00:30;4.23;;;1.97;;
13720;SDS011;6932;51.438;5.470;2022-07-17T03:02:55;5.27;;;1.70;;
13720;SDS011;6932;51.438;5.470;2022-07-17T03:05:21;2.97;;;1.73;;
13720;SDS011;6932;51.438;5.470;2022-07-17T03:07:47;3.03;;;1.77;;
13720;SDS011;6932;51.438;5.470;2022-07-17T03:10:14;4.13;;;1.90;;
13720;SDS011;6932;51.438;5.470;2022-07-17T03:12:40;3.83;;;1.57;;
13720;SDS011;6932;51.438;5.470;2022-07-17T03:15:07;4.70;;;2.10;;
13720;SDS011;6932;51.438;5.470;2022-07-17T03:17:33;4.47;;;2.07;;
13720;SDS011;6932;51.438;5.470;2022-07-17T03:19:59;3.73;;;1.70;;
13720;SDS011;6932;51.438;5.470;2022-07-17T03:22:26;5.70;;;2.10;;
13720;SDS011;6932;51.438;5.470;2022-07-17T03:24:51;4.17;;;1.90;;
13720;SDS011;6932;51.438;5.470;2022-07-17T03:27:18;3.53;;;1.90;;
13720;SDS011;6932;51.438;5.470;2022-07-17T03:29:44;3.83;;;2.20;;
13720;SDS011;6932;51.438;5.470;2022-07-17T03:32:10;5.80;;;2.17;;
13720;SDS011;6932;51.438;5.470;2022-07-17T03:34:36;4.23;;;1.90;;
13720;SDS011;6932;51.438;5.470;2022-07-17T03:37:03;4.03;;;1.90;;
13720;SDS011;6932;51.438;5.470;2022-07-17T03:39:30;3.80;;;2.03;;
13720;SDS011;6932;51.438;5.470;2022-07-17T03:41:56;3.83;;;2.00;;
13720;SDS011;6932;51.438;5.470;2022-07-17T03:44:22;4.90;;;2.37;;
13720;SDS011;6932;51.438;5.470;2022-07-17T03:46:48;4.20;;;1.87;;
13720;SDS011;6932;51.438;5.470;2022-07-17T03:49:14;4.47;;;1.70;;
13720;SDS011;6932;51.438;5.470;2022-07-17T03:51:40;3.23;;;2.00;;
13720;SDS011;6932;51.438;5.470;2022-07-17T03:54:06;5.03;;;2.03;;
13720;SDS011;6932;51.438;5.470;2022-07-17T03:56:32;3.53;;;1.73;;
13720;SDS011;6932;51.438;5.470;2022-07-17T03:58:58;3.37;;;2.00;;
13720;SDS011;6932;51.438;5.470;2022-07-17T04:01:24;5.03;;;2.00;;
13720;SDS011;6932;51.438;5.470;2022-07-17T04:03:50;5.93;;;2.00;;
13720;SDS011;6932;51.438;5.470;2022-07-17T04:06:15;3.53;;;2.10;;
13720;SDS011;6932;51.438;5.470;2022-07-17T04:08:41;4.93;;;1.90;;
13720;SDS011;6932;51.438;5.470;2022-07-17T04:11:07;3.53;;;2.00;;
13720;SDS011;6932;51.438;5.470;2022-07-17T04:13:33;4.17;;;1.90;;
13720;SDS011;6932;51.438;5.470;2022-07-17T04:15:59;4.63;;;2.37;;
13720;SDS011;6932;51.438;5.470;2022-07-17T04:18:29;3.83;;;2.10;;
13720;SDS011;6932;51.438;5.470;2022-07-17T04:21:00;3.30;;;2.00;;
13720;SDS011;6932;51.438;5.470;2022-07-17T04:23:32;3.77;;;1.90;;
13720;SDS011;6932;51.438;5.470;2022-07-17T04:25:58;4.20;;;2.00;;
13720;SDS011;6932;51.438;5.470;2022-07-17T04:28:24;3.87;;;2.20;;
13720;SDS011;6932;51.438;5.470;2022-07-17T04:30:50;3.23;;;2.07;;
13720;SDS011;6932;51.438;5.470;2022-07-17T04:33:16;3.27;;;2.00;;
13720;SDS011;6932;51.438;5.470;2022-07-17T04:35:42;5.23;;;2.20;;
13720;SDS011;6932;51.438;5.470;2022-07-17T04:38:08;5.77;;;2.20;;
13720;SDS011;6932;51.438;5.470;2022-07-17T04:40:36;3.23;;;2.10;;
13720;SDS011;6932;51.438;5.470;2022-07-17T04:43:04;4.93;;;2.20;;
13720;SDS011;6932;51.438;5.470;2022-07-17T04:45:30;4.07;;;2.10;;
13720;SDS011;6932;51.438;5.470;2022-07-17T04:47:57;4.07;;;2.10;;
13720;SDS011;6932;51.438;5.470;2022-07-17T04:50:23;6.03;;;2.20;;
13720;SDS011;6932;51.438;5.470;2022-07-17T04:52:49;4.53;;;2.13;;
13720;SDS011;6932;51.438;5.470;2022-07-17T04:55:15;3.93;;;2.00;;
13720;SDS011;6932;51.438;5.470;2022-07-17T04:57:41;3.67;;;2.03;;
13720;SDS011;6932;51.438;5.470;2022-07-17T05:00:08;6.80;;;2.47;;
13720;SDS011;6932;51.438;5.470;2022-07-17T05:02:36;4.43;;;2.40;;
13720;SDS011;6932;51.438;5.470;2022-07-17T05:05:02;4.43;;;2.30;;
13720;SDS011;6932;51.438;5.470;2022-07-17T05:07:28;4.63;;;1.97;;
13720;SDS011;6932;51.438;5.470;2022-07-17T05:09:55;3.57;;;2.07;;
13720;SDS011;6932;51.438;5.470;2022-07-17T05:12:22;4.47;;;2.10;;
13720;SDS011;6932;51.438;5.470;2022-07-17T05:14:48;6.17;;;2.60;;
13720;SDS011;6932;51.438;5.470;2022-07-17T05:17:13;4.13;;;2.30;;
13720;SDS011;6932;51.438;5.470;2022-07-17T05:19:39;6.00;;;2.20;;
13720;SDS011;6932;51.438;5.470;2022-07-17T05:22:05;4.63;;;2.17;;
13720;SDS011;6932;51.438;5.470;2022-07-17T05:24:31;6.80;;;2.40;;
13720;SDS011;6932;51.438;5.470;2022-07-17T05:26:58;4.00;;;2.40;;
13720;SDS011;6932;51.438;5.470;2022-07-17T05:29:25;5.80;;;2.40;;
13720;SDS011;6932;51.438;5.470;2022-07-17T05:31:51;5.90;;;2.50;;
13720;SDS011;6932;51.438;5.470;2022-07-17T05:34:17;5.70;;;2.50;;
13720;SDS011;6932;51.438;5.470;2022-07-17T05:36:42;4.30;;;2.47;;
13720;SDS011;6932;51.438;5.470;2022-07-17T05:39:08;4.37;;;2.47;;
13720;SDS011;6932;51.438;5.470;2022-07-17T05:41:35;5.77;;;2.60;;
13720;SDS011;6932;51.438;5.470;2022-07-17T05:44:01;6.17;;;2.80;;
13720;SDS011;6932;51.438;5.470;2022-07-17T05:46:27;4.60;;;2.50;;
13720;SDS011;6932;51.438;5.470;2022-07-17T05:48:53;4.43;;;2.73;;
13720;SDS011;6932;51.438;5.470;2022-07-17T05:51:19;7.37;;;2.60;;
13720;SDS011;6932;51.438;5.470;2022-07-17T05:53:45;4.97;;;2.50;;
13720;SDS011;6932;51.438;5.470;2022-07-17T05:56:10;5.80;;;2.57;;
13720;SDS011;6932;51.438;5.470;2022-07-17T05:58:36;7.33;;;2.80;;
13720;SDS011;6932;51.438;5.470;2022-07-17T06:01:02;4.33;;;2.60;;
13720;SDS011;6932;51.438;5.470;2022-07-17T06:03:27;4.90;;;2.57;;
13720;SDS011;6932;51.438;5.470;2022-07-17T06:05:54;4.63;;;2.70;;
13720;SDS011;6932;51.438;5.470;2022-07-17T06:08:21;4.63;;;2.90;;
13720;SDS011;6932;51.438;5.470;2022-07-17T06:10:46;5.70;;;2.93;;
13720;SDS011;6932;51.438;5.470;2022-07-17T06:13:12;4.77;;;2.70;;
13720;SDS011;6932;51.438;5.470;2022-07-17T06:15:38;7.70;;;3.00;;
13720;SDS011;6932;51.438;5.470;2022-07-17T06:18:04;4.90;;;2.63;;
13720;SDS011;6932;51.438;5.470;2022-07-17T06:20:30;5.63;;;2.70;;
13720;SDS011;6932;51.438;5.470;2022-07-17T06:22:56;6.57;;;3.13;;
13720;SDS011;6932;51.438;5.470;2022-07-17T06:25:22;5.80;;;2.57;;
13720;SDS011;6932;51.438;5.470;2022-07-17T06:27:49;3.70;;;2.47;;
13720;SDS011;6932;51.438;5.470;2022-07-17T06:30:15;4.30;;;2.70;;
13720;SDS011;6932;51.438;5.470;2022-07-17T06:32:41;6.17;;;2.87;;
13720;SDS011;6932;51.438;5.470;2022-07-17T06:35:08;5.67;;;2.63;;
13720;SDS011;6932;51.438;5.470;2022-07-17T06:37:34;5.57;;;2.70;;
13720;SDS011;6932;51.438;5.470;2022-07-17T06:40:01;4.20;;;2.43;;
13720;SDS011;6932;51.438;5.470;2022-07-17T06:42:28;5.47;;;2.60;;
13720;SDS011;6932;51.438;5.470;2022-07-17T06:44:54;5.67;;;2.90;;
13720;SDS011;6932;51.438;5.470;2022-07-17T06:47:20;5.57;;;2.53;;
13720;SDS011;6932;51.438;5.470;2022-07-17T06:49:46;8.10;;;3.00;;
13720;SDS011;6932;51.438;5.470;2022-07-17T06:52:11;6.30;;;2.53;;
13720;SDS011;6932;51.438;5.470;2022-07-17T06:54:37;7.60;;;3.10;;
13720;SDS011;6932;51.438;5.470;2022-07-17T06:57:03;4.63;;;2.70;;
13720;SDS011;6932;51.438;5.470;2022-07-17T06:59:29;5.40;;;2.70;;
13720;SDS011;6932;51.438;5.470;2022-07-17T07:01:54;7.30;;;2.50;;
13720;SDS011;6932;51.438;5.470;2022-07-17T07:04:20;4.63;;;2.37;;
13720;SDS011;6932;51.438;5.470;2022-07-17T07:06:46;6.23;;;2.60;;
13720;SDS011;6932;51.438;5.470;2022-07-17T07:09:13;4.73;;;2.57;;
13720;SDS011;6932;51.438;5.470;2022-07-17T07:11:38;4.80;;;2.60;;
13720;SDS011;6932;51.438;5.470;2022-07-17T07:14:05;4.27;;;2.43;;
13720;SDS011;6932;51.438;5.470;2022-07-17T07:16:32;5.40;;;2.50;;
13720;SDS011;6932;51.438;5.470;2022-07-17T07:18:58;6.37;;;2.60;;
13720;SDS011;6932;51.438;5.470;2022-07-17T07:21:24;5.70;;;2.43;;
13720;SDS011;6932;51.438;5.470;2022-07-17T07:23:51;3.93;;;2.13;;
13720;SDS011;6932;51.438;5.470;2022-07-17T07:26:18;5.07;;;2.17;;
13720;SDS011;6932;51.438;5.470;2022-07-17T07:28:43;4.27;;;2.13;;
13720;SDS011;6932;51.438;5.470;2022-07-17T07:31:09;5.87;;;2.33;;
13720;SDS011;6932;51.438;5.470;2022-07-17T07:33:35;5.07;;;2.40;;
13720;SDS011;6932;51.438;5.470;2022-07-17T07:36:03;6.03;;;1.87;;
13720;SDS011;6932;51.438;5.470;2022-07-17T07:38:29;3.77;;;1.87;;
13720;SDS011;6932;51.438;5.470;2022-07-17T07:40:55;4.63;;;2.27;;
13720;SDS011;6932;51.438;5.470;2022-07-17T07:43:21;4.60;;;2.23;;
13720;SDS011;6932;51.438;5.470;2022-07-17T07:45:47;3.13;;;2.00;;
13720;SDS011;6932;51.438;5.470;2022-07-17T07:48:12;3.50;;;1.93;;
13720;SDS011;6932;51.438;5.470;2022-07-17T07:50:38;4.87;;;2.30;;
13720;SDS011;6932;51.438;5.470;2022-07-17T07:53:05;4.13;;;2.00;;
13720;SDS011;6932;51.438;5.470;2022-07-17T07:55:31;2.90;;;1.83;;
13720;SDS011;6932;51.438;5.470;2022-07-17T07:58:07;3.17;;;1.70;;
13720;SDS011;6932;51.438;5.470;2022-07-17T08:00:36;3.53;;;1.87;;
13720;SDS011;6932;51.438;5.470;2022-07-17T08:03:05;4.10;;;1.73;;
13720;SDS011;6932;51.438;5.470;2022-07-17T08:05:32;4.47;;;1.90;;
13720;SDS011;6932;51.438;5.470;2022-07-17T08:07:58;4.63;;;1.83;;
13720;SDS011;6932;51.438;5.470;2022-07-17T08:10:24;4.60;;;1.60;;
13720;SDS011;6932;51.438;5.470;2022-07-17T08:12:50;2.83;;;1.58;;
13720;SDS011;6932;51.438;5.470;2022-07-17T08:15:17;4.32;;;1.88;;
13720;SDS011;6932;51.438;5.470;2022-07-17T08:17:45;4.65;;;1.65;;
13720;SDS011;6932;51.438;5.470;2022-07-17T08:20:13;4.60;;;1.65;;
13720;SDS011;6932;51.438;5.470;2022-07-17T08:22:40;3.15;;;1.60;;
13720;SDS011;6932;51.438;5.470;2022-07-17T08:25:08;3.00;;;1.58;;
13720;SDS011;6932;51.438;5.470;2022-07-17T08:27:35;1.80;;;1.30;;
13720;SDS011;6932;51.438;5.470;2022-07-17T08:30:05;2.88;;;1.55;;
13720;SDS011;6932;51.438;5.470;2022-07-17T08:32:34;2.15;;;1.40;;
13720;SDS011;6932;51.438;5.470;2022-07-17T08:35:01;3.47;;;1.63;;
13720;SDS011;6932;51.438;5.470;2022-07-17T08:37:28;3.78;;;1.70;;
13720;SDS011;6932;51.438;5.470;2022-07-17T08:39:54;3.28;;;1.50;;
13720;SDS011;6932;51.438;5.470;2022-07-17T08:42:21;3.33;;;1.50;;
13720;SDS011;6932;51.438;5.470;2022-07-17T08:44:48;4.10;;;1.58;;
13720;SDS011;6932;51.438;5.470;2022-07-17T08:47:14;3.20;;;1.38;;
13720;SDS011;6932;51.438;5.470;2022-07-17T08:49:41;2.70;;;1.50;;
13720;SDS011;6932;51.438;5.470;2022-07-17T08:52:11;2.22;;;1.35;;
13720;SDS011;6932;51.438;5.470;2022-07-17T08:54:40;2.95;;;1.23;;
13720;SDS011;6932;51.438;5.470;2022-07-17T08:57:07;3.83;;;1.50;;
13720;SDS011;6932;51.438;5.470;2022-07-17T08:59:34;3.47;;;1.67;;
13720;SDS011;6932;51.438;5.470;2022-07-17T09:02:00;2.70;;;1.60;;
13720;SDS011;6932;51.438;5.470;2022-07-17T09:04:26;3.67;;;1.58;;
13720;SDS011;6932;51.438;5.470;2022-07-17T09:07:02;1.95;;;1.17;;
13720;SDS011;6932;51.438;5.470;2022-07-17T09:09:30;2.08;;;1.30;;
13720;SDS011;6932;51.438;5.470;2022-07-17T09:11:59;2.45;;;1.20;;
13720;SDS011;6932;51.438;5.470;2022-07-17T09:14:37;2.00;;;1.30;;
13720;SDS011;6932;51.438;5.470;2022-07-17T09:17:06;4.13;;;1.75;;
13720;SDS011;6932;51.438;5.470;2022-07-17T09:19:35;3.75;;;1.60;;
13720;SDS011;6932;51.438;5.470;2022-07-17T09:24:47;2.55;;;1.80;;
13720;SDS011;6932;51.438;5.470;2022-07-17T09:32:30;4.32;;;1.80;;
13720;SDS011;6932;51.438;5.470;2022-07-17T09:35:03;5.38;;;1.90;;
13720;SDS011;6932;51.438;5.470;2022-07-17T09:37:33;3.92;;;1.90;;
13720;SDS011;6932;51.438;5.470;2022-07-17T09:40:01;5.82;;;2.03;;
13720;SDS011;6932;51.438;5.470;2022-07-17T09:42:34;5.43;;;1.90;;
13720;SDS011;6932;51.438;5.470;2022-07-17T09:45:03;4.40;;;1.80;;
13720;SDS011;6932;51.438;5.470;2022-07-17T09:47:34;4.80;;;2.00;;
13720;SDS011;6932;51.438;5.470;2022-07-17T09:50:03;4.15;;;1.80;;
13720;SDS011;6932;51.438;5.470;2022-07-17T09:52:33;4.00;;;2.10;;
13720;SDS011;6932;51.438;5.470;2022-07-17T09:55:03;3.67;;;2.20;;
13720;SDS011;6932;51.438;5.470;2022-07-17T09:57:30;3.20;;;1.80;;
13720;SDS011;6932;51.438;5.470;2022-07-17T10:00:00;4.25;;;1.90;;
13720;SDS011;6932;51.438;5.470;2022-07-17T10:02:30;4.05;;;2.00;;
13720;SDS011;6932;51.438;5.470;2022-07-17T10:04:57;4.07;;;1.80;;
13720;SDS011;6932;51.438;5.470;2022-07-17T10:07:23;3.85;;;2.03;;
13720;SDS011;6932;51.438;5.470;2022-07-17T10:09:49;4.10;;;1.60;;
13720;SDS011;6932;51.438;5.470;2022-07-17T10:12:15;5.30;;;1.90;;
13720;SDS011;6932;51.438;5.470;2022-07-17T10:14:45;5.35;;;1.80;;
13720;SDS011;6932;51.438;5.470;2022-07-17T10:17:13;4.88;;;1.95;;
13720;SDS011;6932;51.438;5.470;2022-07-17T10:19:55;5.25;;;2.00;;
13720;SDS011;6932;51.438;5.470;2022-07-17T10:22:23;5.05;;;1.70;;
13720;SDS011;6932;51.438;5.470;2022-07-17T10:24:53;4.38;;;1.35;;
13720;SDS011;6932;51.438;5.470;2022-07-17T10:27:22;2.58;;;1.60;;
13720;SDS011;6932;51.438;5.470;2022-07-17T10:30:00;2.03;;;1.17;;
13720;SDS011;6932;51.438;5.470;2022-07-17T10:32:35;2.85;;;1.30;;
13720;SDS011;6932;51.438;5.470;2022-07-17T10:35:06;3.33;;;1.63;;
13720;SDS011;6932;51.438;5.470;2022-07-17T10:47:53;2.72;;;1.70;;
13720;SDS011;6932;51.438;5.470;2022-07-17T10:50:29;4.40;;;1.60;;
13720;SDS011;6932;51.438;5.470;2022-07-17T10:55:29;2.00;;;1.40;;
13720;SDS011;6932;51.438;5.470;2022-07-17T10:57:56;3.33;;;1.60;;
13720;SDS011;6932;51.438;5.470;2022-07-17T11:00:22;4.22;;;1.65;;
13720;SDS011;6932;51.438;5.470;2022-07-17T11:02:49;3.28;;;1.40;;
13720;SDS011;6932;51.438;5.470;2022-07-17T11:05:16;3.03;;;1.17;;
13720;SDS011;6932;51.438;5.470;2022-07-17T11:07:52;2.03;;;1.27;;
13720;SDS011;6932;51.438;5.470;2022-07-17T11:10:22;3.50;;;1.35;;
13720;SDS011;6932;51.438;5.470;2022-07-17T11:12:53;2.03;;;1.20;;
13720;SDS011;6932;51.438;5.470;2022-07-17T11:15:20;2.78;;;1.42;;
13720;SDS011;6932;51.438;5.470;2022-07-17T11:17:48;3.08;;;1.50;;
13720;SDS011;6932;51.438;5.470;2022-07-17T11:20:14;4.15;;;1.63;;
13720;SDS011;6932;51.438;5.470;2022-07-17T11:22:42;5.10;;;1.63;;
13720;SDS011;6932;51.438;5.470;2022-07-17T11:25:08;2.95;;;1.33;;
13720;SDS011;6932;51.438;5.470;2022-07-17T11:27:36;1.98;;;1.33;;
13720;SDS011;6932;51.438;5.470;2022-07-17T11:30:03;2.90;;;1.58;;
13720;SDS011;6932;51.438;5.470;2022-07-17T11:32:34;3.40;;;1.30;;
13720;SDS011;6932;51.438;5.470;2022-07-17T11:35:13;3.90;;;1.52;;
13720;SDS011;6932;51.438;5.470;2022-07-17T11:37:44;5.15;;;1.35;;
13720;SDS011;6932;51.438;5.470;2022-07-17T11:40:12;1.73;;;1.20;;
13720;SDS011;6932;51.438;5.470;2022-07-17T11:42:38;1.75;;;1.15;;
13720;SDS011;6932;51.438;5.470;2022-07-17T11:45:04;1.30;;;1.20;;
13720;SDS011;6932;51.438;5.470;2022-07-17T11:47:31;2.55;;;1.15;;
13720;SDS011;6932;51.438;5.470;2022-07-17T11:50:09;2.10;;;1.25;;
13720;SDS011;6932;51.438;5.470;2022-07-17T11:52:41;5.88;;;1.38;;
13720;SDS011;6932;51.438;5.470;2022-07-17T11:55:13;3.25;;;1.40;;
13720;SDS011;6932;51.438;5.470;2022-07-17T11:57:43;4.90;;;1.40;;
13720;SDS011;6932;51.438;5.470;2022-07-17T12:00:15;5.72;;;1.55;;
13720;SDS011;6932;51.438;5.470;2022-07-17T12:02:44;2.40;;;1.50;;
13720;SDS011;6932;51.438;5.470;2022-07-17T12:05:11;1.70;;;1.10;;
13720;SDS011;6932;51.438;5.470;2022-07-17T12:07:41;2.22;;;1.30;;
13720;SDS011;6932;51.438;5.470;2022-07-17T12:12:57;2.45;;;1.20;;
13720;SDS011;6932;51.438;5.470;2022-07-17T12:15:40;1.45;;;1.20;;
13720;SDS011;6932;51.438;5.470;2022-07-17T12:18:20;2.78;;;1.00;;
13720;SDS011;6932;51.438;5.470;2022-07-17T12:20:58;2.88;;;1.10;;
13720;SDS011;6932;51.438;5.470;2022-07-17T12:23:32;3.08;;;1.30;;
13720;SDS011;6932;51.438;5.470;2022-07-17T12:28:42;2.47;;;1.10;;
13720;SDS011;6932;51.438;5.470;2022-07-17T12:31:08;3.38;;;1.50;;
13720;SDS011;6932;51.438;5.470;2022-07-17T12:33:41;3.15;;;1.58;;
13720;SDS011;6932;51.438;5.470;2022-07-17T12:36:08;3.22;;;1.67;;
13720;SDS011;6932;51.438;5.470;2022-07-17T12:38:34;2.10;;;1.50;;
13720;SDS011;6932;51.438;5.470;2022-07-17T12:41:00;1.20;;;1.02;;
13720;SDS011;6932;51.438;5.470;2022-07-17T12:43:26;3.50;;;1.58;;
13720;SDS011;6932;51.438;5.470;2022-07-17T12:45:52;2.47;;;1.60;;
13720;SDS011;6932;51.438;5.470;2022-07-17T12:48:17;2.42;;;1.58;;
13720;SDS011;6932;51.438;5.470;2022-07-17T12:50:43;2.13;;;1.67;;
13720;SDS011;6932;51.438;5.470;2022-07-17T12:53:09;5.68;;;1.70;;
13720;SDS011;6932;51.438;5.470;2022-07-17T12:55:35;1.73;;;1.30;;
13720;SDS011;6932;51.438;5.470;2022-07-17T12:58:04;2.90;;;1.58;;
13720;SDS011;6932;51.438;5.470;2022-07-17T13:00:30;4.40;;;1.30;;
13720;SDS011;6932;51.438;5.470;2022-07-17T13:02:57;2.67;;;1.27;;
13720;SDS011;6932;51.438;5.470;2022-07-17T13:05:23;4.35;;;1.20;;
13720;SDS011;6932;51.438;5.470;2022-07-17T13:07:49;1.98;;;1.40;;
13720;SDS011;6932;51.438;5.470;2022-07-17T13:10:15;2.83;;;1.27;;
13720;SDS011;6932;51.438;5.470;2022-07-17T13:12:41;1.70;;;1.17;;
13720;SDS011;6932;51.438;5.470;2022-07-17T13:15:08;4.20;;;1.52;;
13720;SDS011;6932;51.438;5.470;2022-07-17T13:17:34;3.92;;;1.40;;
13720;SDS011;6932;51.438;5.470;2022-07-17T13:20:01;3.67;;;1.63;;
13720;SDS011;6932;51.438;5.470;2022-07-17T13:22:29;2.78;;;1.55;;
13720;SDS011;6932;51.438;5.470;2022-07-17T13:24:55;2.47;;;1.10;;
13720;SDS011;6932;51.438;5.470;2022-07-17T13:27:21;2.50;;;1.40;;
13720;SDS011;6932;51.438;5.470;2022-07-17T13:29:46;2.88;;;1.40;;
13720;SDS011;6932;51.438;5.470;2022-07-17T13:32:12;2.38;;;1.30;;
13720;SDS011;6932;51.438;5.470;2022-07-17T13:34:38;2.67;;;1.23;;
13720;SDS011;6932;51.438;5.470;2022-07-17T13:37:04;2.88;;;1.23;;
13720;SDS011;6932;51.438;5.470;2022-07-17T13:39:30;3.45;;;1.38;;
13720;SDS011;6932;51.438;5.470;2022-07-17T13:41:56;2.08;;;1.20;;
13720;SDS011;6932;51.438;5.470;2022-07-17T13:44:22;1.83;;;1.27;;
13720;SDS011;6932;51.438;5.470;2022-07-17T13:46:47;3.70;;;1.45;;
13720;SDS011;6932;51.438;5.470;2022-07-17T13:49:13;2.97;;;1.20;;
13720;SDS011;6932;51.438;5.470;2022-07-17T13:51:39;2.30;;;1.48;;
13720;SDS011;6932;51.438;5.470;2022-07-17T13:54:06;4.45;;;1.38;;
13720;SDS011;6932;51.438;5.470;2022-07-17T13:56:32;2.10;;;1.38;;
13720;SDS011;6932;51.438;5.470;2022-07-17T13:58:59;5.03;;;1.25;;
13720;SDS011;6932;51.438;5.470;2022-07-17T14:01:26;3.03;;;1.35;;
13720;SDS011;6932;51.438;5.470;2022-07-17T14:03:53;4.45;;;1.23;;
13720;SDS011;6932;51.438;5.470;2022-07-17T14:06:18;2.45;;;1.20;;
13720;SDS011;6932;51.438;5.470;2022-07-17T14:08:45;2.60;;;1.10;;
13720;SDS011;6932;51.438;5.470;2022-07-17T14:11:11;3.25;;;1.23;;
13720;SDS011;6932;51.438;5.470;2022-07-17T14:13:38;2.42;;;1.20;;
13720;SDS011;6932;51.438;5.470;2022-07-17T14:16:05;4.07;;;1.38;;
13720;SDS011;6932;51.438;5.470;2022-07-17T14:18:31;3.60;;;1.35;;
13720;SDS011;6932;51.438;5.470;2022-07-17T14:20:57;2.58;;;1.02;;
13720;SDS011;6932;51.438;5.470;2022-07-17T14:23:23;1.63;;;1.10;;
13720;SDS011;6932;51.438;5.470;2022-07-17T14:25:49;2.80;;;1.30;;
13720;SDS011;6932;51.438;5.470;2022-07-17T14:28:15;4.80;;;1.40;;
13720;SDS011;6932;51.438;5.470;2022-07-17T14:30:41;2.25;;;1.20;;
13720;SDS011;6932;51.438;5.470;2022-07-17T14:33:07;2.50;;;1.00;;
13720;SDS011;6932;51.438;5.470;2022-07-17T14:35:33;2.55;;;1.13;;
13720;SDS011;6932;51.438;5.470;2022-07-17T14:38:00;1.90;;;1.10;;
13720;SDS011;6932;51.438;5.470;2022-07-17T14:40:26;1.80;;;1.20;;
13720;SDS011;6932;51.438;5.470;2022-07-17T14:42:51;3.13;;;1.20;;
13720;SDS011;6932;51.438;5.470;2022-07-17T14:45:18;3.75;;;1.00;;
13720;SDS011;6932;51.438;5.470;2022-07-17T14:47:43;1.90;;;1.10;;
13720;SDS011;6932;51.438;5.470;2022-07-17T14:50:09;1.60;;;1.13;;
13720;SDS011;6932;51.438;5.470;2022-07-17T14:52:35;3.10;;;1.20;;
13720;SDS011;6932;51.438;5.470;2022-07-17T14:55:02;2.22;;;1.20;;
13720;SDS011;6932;51.438;5.470;2022-07-17T14:57:30;2.63;;;1.15;;
13720;SDS011;6932;51.438;5.470;2022-07-17T14:59:55;3.03;;;1.40;;
13720;SDS011;6932;51.438;5.470;2022-07-17T15:02:21;2.65;;;1.13;;
13720;SDS011;6932;51.438;5.470;2022-07-17T15:04:47;2.20;;;1.10;;
13720;SDS011;6932;51.438;5.470;2022-07-17T15:07:12;2.65;;;1.08;;
13720;SDS011;6932;51.438;5.470;2022-07-17T15:09:38;4.10;;;1.23;;
13720;SDS011;6932;51.438;5.470;2022-07-17T15:12:04;4.97;;;1.10;;
13720;SDS011;6932;51.438;5.470;2022-07-17T15:14:30;2.85;;;1.20;;
13720;SDS011;6932;51.438;5.470;2022-07-17T15:16:56;2.17;;;1.00;;
13720;SDS011;6932;51.438;5.470;2022-07-17T15:19:22;1.83;;;1.10;;
13720;SDS011;6932;51.438;5.470;2022-07-17T15:21:48;1.45;;;1.00;;
13720;SDS011;6932;51.438;5.470;2022-07-17T15:24:15;4.95;;;1.40;;
13720;SDS011;6932;51.438;5.470;2022-07-17T15:26:41;3.78;;;1.10;;